Time;durP1;ratioP1;P1;durP2;ratioP2;P2;SDS_P1;SDS_P2;PMS_P1;PMS_P2;Temp;Humidity;BMP_temperature;BMP_pressure;BME280_temperature;BME280_humidity;BME280_pressure;Samples;Min_cycle;Max_cycle;Signal;HPM_P1;HPM_P2
2022/05/13 00:00:24;;;;;;;3.97;2.83;;;;;;;13.71;67.08;94950.75;5037315;28;20232;-75
2022/05/13 00:02:52;;;;;;;5.13;3.03;;;;;;;13.10;68.34;94957.97;5042245;28;20570;-75
2022/05/13 00:05:19;;;;;;;5.57;3.40;;;;;;;12.88;69.64;94950.19;5043585;28;20250;-76
2022/05/13 00:07:46;;;;;;;4.25;3.15;;;;;;;12.85;70.58;94946.19;5039038;28;20546;-75
2022/05/13 00:10:13;;;;;;;7.00;3.00;;;;;;;12.91;70.51;94955.75;5036624;28;20228;-75
2022/05/13 00:12:41;;;;;;;6.22;3.58;;;;;;;13.07;69.91;94955.94;5050490;28;20622;-75
2022/05/13 00:15:13;;;;;;;5.00;2.90;;;;;;;13.05;69.93;94958.19;5050069;28;20262;-75
2022/05/13 00:17:40;;;;;;;3.45;2.60;;;;;;;12.82;70.83;94950.41;5040679;28;20196;-76
2022/05/13 00:20:11;;;;;;;10.93;3.22;;;;;;;12.71;71.21;94957.34;5043197;28;20227;-76
2022/05/13 00:22:44;;;;;;;3.05;2.72;;;;;;;12.81;70.66;94961.59;5041132;28;20227;-75
2022/05/13 00:25:11;;;;;;;8.38;3.28;;;;;;;12.78;70.77;94963.06;5049383;28;20642;-75
2022/05/13 00:27:38;;;;;;;3.85;3.33;;;;;;;12.88;70.51;94950.97;5039079;28;20200;-76
2022/05/13 00:30:09;;;;;;;7.53;3.90;;;;;;;13.08;69.76;94949.34;5043771;28;20236;-76
2022/05/13 00:32:36;;;;;;;4.22;2.90;;;;;;;13.17;68.98;94952.81;5042182;28;20228;-75
2022/05/13 00:35:04;;;;;;;5.57;3.03;;;;;;;13.26;68.71;94956.22;5035512;28;20701;-75
2022/05/13 00:37:32;;;;;;;5.28;3.47;;;;;;;13.24;68.56;94953.06;5036232;28;20204;-75
2022/05/13 00:39:59;;;;;;;13.20;3.08;;;;;;;13.27;68.54;94955.09;5036542;28;20425;-75
2022/05/13 00:42:26;;;;;;;5.80;2.95;;;;;;;13.30;68.65;94962.59;5050104;28;20562;-75
2022/05/13 00:44:53;;;;;;;4.50;3.13;;;;;;;13.35;68.78;94954.22;5057807;28;20244;-75
2022/05/13 00:47:21;;;;;;;4.97;3.17;;;;;;;13.35;69.00;94965.13;5049751;28;20185;-76
2022/05/13 00:49:48;;;;;;;5.95;3.47;;;;;;;13.43;68.75;94961.50;5042640;28;20224;-74
2022/05/13 00:52:16;;;;;;;5.57;3.50;;;;;;;13.56;68.16;94953.34;5030569;28;20679;-74
2022/05/13 00:54:45;;;;;;;7.15;3.30;;;;;;;13.29;68.93;94958.28;5045314;28;20204;-74
2022/05/13 00:57:12;;;;;;;5.22;3.53;;;;;;;13.23;69.48;94956.91;5048010;28;20218;-74
2022/05/13 00:59:43;;;;;;;8.98;3.83;;;;;;;13.23;69.98;94961.56;5053233;28;20227;-74
2022/05/13 01:02:11;;;;;;;4.97;3.20;;;;;;;13.18;70.12;94959.84;5039725;28;20205;-73
2022/05/13 01:04:38;;;;;;;7.05;3.25;;;;;;;13.21;70.22;94956.47;5043600;28;20266;-76
2022/05/13 01:07:10;;;;;;;4.47;3.45;;;;;;;13.17;70.26;94960.97;5046025;28;20589;-75
2022/05/13 01:09:42;;;;;;;4.57;3.20;;;;;;;13.07;70.19;94966.81;5043790;28;20224;-76
2022/05/13 01:12:21;;;;;;;5.72;3.50;;;;;;;12.98;70.33;94963.38;5040060;28;20636;-75
2022/05/13 01:14:54;;;;;;;6.38;3.88;;;;;;;13.05;70.35;94960.91;5053322;28;20598;-74
2022/05/13 01:20:10;;;;;;;5.80;3.20;;;;;;;13.05;69.85;94961.69;5052470;28;20727;-74
2022/05/13 01:22:44;;;;;;;5.65;3.38;;;;;;;12.97;69.79;94951.72;5052371;28;20223;-75
2022/05/13 01:25:13;;;;;;;5.43;2.95;;;;;;;12.86;70.00;94952.44;5039712;28;20572;-74
2022/05/13 01:27:42;;;;;;;5.05;3.72;;;;;;;12.79;70.16;94963.84;5041397;28;20201;-74
2022/05/13 01:30:10;;;;;;;4.85;3.47;;;;;;;12.77;70.03;94956.03;5050654;28;20322;-75
2022/05/13 01:32:37;;;;;;;6.43;3.35;;;;;;;12.87;68.97;94954.81;5052436;28;20226;-74
2022/05/13 01:35:05;;;;;;;4.20;2.97;;;;;;;12.77;69.30;94947.09;5034480;28;20536;-74
2022/05/13 01:37:32;;;;;;;6.10;2.88;;;;;;;12.77;68.97;94944.38;5046054;28;20293;-74
2022/05/13 01:40:02;;;;;;;4.80;2.95;;;;;;;12.73;68.90;94938.00;5039622;28;20203;-75
2022/05/13 01:42:29;;;;;;;5.22;2.75;;;;;;;12.70;69.36;94947.63;5052664;28;20258;-75
2022/05/13 01:44:56;;;;;;;9.85;3.13;;;;;;;12.75;69.57;94941.19;5070888;28;20226;-75
2022/05/13 01:47:24;;;;;;;4.38;3.05;;;;;;;12.71;69.56;94935.59;5058355;28;20673;-74
2022/05/13 01:49:51;;;;;;;4.30;3.13;;;;;;;12.53;70.87;94944.25;5044144;28;20239;-74
2022/05/13 01:52:19;;;;;;;5.88;3.03;;;;;;;12.40;71.23;94932.53;5047018;28;20553;-74
2022/05/13 01:54:46;;;;;;;5.80;3.05;;;;;;;12.43;71.38;94935.38;5051781;28;20200;-75
2022/05/13 01:57:15;;;;;;;8.90;3.58;;;;;;;12.51;70.63;94931.00;5050348;28;20200;-74
2022/05/13 01:59:41;;;;;;;4.43;2.95;;;;;;;12.55;70.68;94936.56;5041300;28;20671;-75
2022/05/13 02:02:08;;;;;;;6.60;3.47;;;;;;;12.60;70.99;94928.19;5038905;28;20208;-74
2022/05/13 02:04:34;;;;;;;5.60;3.30;;;;;;;12.60;70.94;94930.91;5042867;28;20204;-74
2022/05/13 02:07:01;;;;;;;9.02;3.58;;;;;;;12.60;71.02;94933.63;5048152;28;20581;-75
2022/05/13 02:09:28;;;;;;;6.75;3.63;;;;;;;12.57;71.15;94929.69;5042960;28;20231;-74
2022/05/13 02:11:55;;;;;;;5.40;3.22;;;;;;;12.56;71.27;94930.81;5045343;28;20203;-74
2022/05/13 02:14:23;;;;;;;5.80;3.63;;;;;;;12.45;71.54;94935.81;5041315;28;20203;-75
2022/05/13 02:16:50;;;;;;;9.93;3.42;;;;;;;12.43;71.58;94929.16;5038483;28;20741;-74
2022/05/13 02:19:17;;;;;;;5.93;3.00;;;;;;;12.40;71.60;94937.97;5041665;28;20703;-74
2022/05/13 02:21:45;;;;;;;5.20;3.08;;;;;;;12.28;71.74;94951.47;5048377;28;20273;-74
2022/05/13 02:24:12;;;;;;;4.78;3.03;;;;;;;12.19;72.06;94950.72;5051559;28;20211;-75
2022/05/13 02:26:39;;;;;;;6.95;3.33;;;;;;;12.17;72.09;94947.53;5038499;28;20199;-74
2022/05/13 02:29:06;;;;;;;14.32;4.40;;;;;;;12.08;72.13;94956.53;5040757;28;20197;-75
2022/05/13 02:31:35;;;;;;;6.22;3.53;;;;;;;12.10;72.01;94954.28;5049171;28;20224;-75
2022/05/13 02:34:02;;;;;;;8.57;4.32;;;;;;;12.12;72.08;94956.69;5051941;28;20204;-75
2022/05/13 02:36:28;;;;;;;7.32;4.13;;;;;;;12.14;72.06;94961.78;5052187;28;20215;-75
2022/05/13 02:38:55;;;;;;;6.18;3.70;;;;;;;12.17;72.06;94969.25;5051705;28;20666;-75
2022/05/13 02:41:22;;;;;;;6.68;3.33;;;;;;;12.15;71.88;94966.09;5046279;28;20205;-75
2022/05/13 02:43:51;;;;;;;5.72;3.58;;;;;;;12.12;71.85;94972.19;5052564;28;20214;-75
2022/05/13 02:46:21;;;;;;;11.63;4.65;;;;;;;12.06;71.84;94980.50;5052218;28;20239;-75
2022/05/13 02:48:50;;;;;;;7.32;3.88;;;;;;;12.00;72.49;94965.53;5051740;28;20208;-75
2022/05/13 02:51:17;;;;;;;7.53;3.78;;;;;;;11.98;72.78;94973.22;5044606;28;20240;-75
2022/05/13 02:53:45;;;;;;;7.47;4.50;;;;;;;12.01;72.55;94967.13;5044542;28;20204;-75
2022/05/13 02:56:12;;;;;;;6.90;4.18;;;;;;;12.00;72.65;94970.97;5038437;28;20226;-75
2022/05/13 02:58:41;;;;;;;9.18;4.60;;;;;;;12.01;72.83;94966.34;5037012;28;20228;-75
2022/05/13 03:01:11;;;;;;;8.80;4.00;;;;;;;12.06;72.42;94964.22;5038642;28;20227;-75
2022/05/13 03:03:39;;;;;;;5.70;3.45;;;;;;;12.03;72.74;94967.56;5038010;28;20200;-75
2022/05/13 03:06:08;;;;;;;6.50;4.28;;;;;;;12.06;72.49;94960.69;5042875;28;20693;-75
2022/05/13 03:08:35;;;;;;;6.25;3.72;;;;;;;12.09;72.74;94958.13;5044200;28;20199;-76
2022/05/13 03:11:02;;;;;;;6.20;4.10;;;;;;;12.10;72.78;94965.16;5040271;28;20211;-74
2022/05/13 03:13:30;;;;;;;5.65;3.33;;;;;;;12.13;73.38;94962.91;5050280;28;20733;-74
2022/05/13 03:16:02;;;;;;;6.05;3.35;;;;;;;12.00;74.53;94970.16;5050525;28;20211;-75
2022/05/13 03:18:29;;;;;;;5.10;3.83;;;;;;;12.16;74.49;94962.25;5050808;28;20298;-75
2022/05/13 03:20:56;;;;;;;7.43;3.67;;;;;;;12.66;72.83;94960.28;5039762;28;20259;-75
2022/05/13 03:23:24;;;;;;;10.18;4.47;;;;;;;13.21;71.11;94959.19;5044317;28;20208;-75
2022/05/13 03:25:51;;;;;;;6.05;3.72;;;;;;;13.86;69.46;94962.91;5041726;28;20210;-75
2022/05/13 03:28:18;;;;;;;4.60;3.40;;;;;;;14.68;66.88;94960.00;5037372;28;20225;-75
2022/05/13 03:30:45;;;;;;;7.38;4.22;;;;;;;15.36;64.59;94962.69;5050452;28;20216;-76
2022/05/13 03:33:12;;;;;;;9.38;5.60;;;;;;;15.54;63.29;94959.31;5037294;28;20682;-75
2022/05/13 03:35:39;;;;;;;7.32;4.15;;;;;;;16.06;62.11;94958.28;5038726;28;20209;-75
2022/05/13 03:38:06;;;;;;;7.25;4.18;;;;;;;17.09;58.96;94954.28;5048032;28;20253;-75
2022/05/13 03:40:35;;;;;;;7.75;4.30;;;;;;;17.45;57.51;94956.59;5049989;28;20352;-75
2022/05/13 03:43:02;;;;;;;7.35;4.28;;;;;;;17.75;55.81;94952.09;5050818;28;20228;-75
2022/05/13 03:45:32;;;;;;;9.45;4.45;;;;;;;18.35;54.40;94955.00;5058821;28;20235;-74
2022/05/13 03:47:59;;;;;;;6.80;4.00;;;;;;;19.33;51.35;94947.69;5050522;28;20666;-75
2022/05/13 03:50:27;;;;;;;9.50;4.70;;;;;;;20.18;49.44;94946.59;5038348;28;20228;-75
2022/05/13 03:52:54;;;;;;;6.70;5.00;;;;;;;20.72;47.68;94944.25;5042884;28;20439;-75
2022/05/13 03:55:21;;;;;;;6.78;4.75;;;;;;;21.08;46.78;94940.47;5043753;28;20196;-75
2022/05/13 03:57:49;;;;;;;7.82;5.38;;;;;;;21.65;45.64;94946.22;5036960;28;20227;-77
2022/05/13 04:00:17;;;;;;;7.72;5.00;;;;;;;21.25;46.32;94961.06;5036937;28;20228;-77
2022/05/13 04:02:44;;;;;;;6.00;4.90;;;;;;;21.55;45.83;94958.81;5030614;28;20251;-76
2022/05/13 04:10:41;;;;;;;11.75;5.60;;;;;;;23.20;42.65;94966.72;5048637;28;20562;-76
2022/05/13 04:16:07;;;;;;;7.18;5.45;;;;;;;23.38;41.94;94956.34;5050222;28;20354;-75
2022/05/13 04:18:36;;;;;;;9.90;5.35;;;;;;;23.21;42.35;94962.78;5046696;28;20647;-74
2022/05/13 04:21:04;;;;;;;6.88;5.35;;;;;;;23.46;42.28;94961.88;5041308;28;20318;-74
2022/05/13 04:23:32;;;;;;;6.82;5.53;;;;;;;24.75;39.78;94958.63;5049543;28;20610;-75
2022/05/13 04:25:59;;;;;;;7.10;5.50;;;;;;;24.58;40.30;94965.16;5049393;28;20219;-76
2022/05/13 04:28:38;;;;;;;9.13;5.60;;;;;;;24.94;40.18;94959.28;5050754;28;20253;-76
2022/05/13 04:31:05;;;;;;;7.75;5.05;;;;;;;25.20;39.41;94961.38;5053878;28;20601;-75
2022/05/13 04:33:33;;;;;;;6.82;4.97;;;;;;;25.63;37.81;94961.69;5040344;28;20230;-77
2022/05/13 04:35:59;;;;;;;8.05;4.72;;;;;;;25.37;37.58;94965.94;5053011;28;20195;-76
2022/05/13 04:38:26;;;;;;;8.20;5.18;;;;;;;25.60;36.38;94956.94;5050430;28;20209;-75
2022/05/13 04:40:54;;;;;;;8.93;4.85;;;;;;;26.55;34.88;94954.78;5042559;28;20227;-75
2022/05/13 04:43:19;;;;;;;5.47;4.97;;;;;;;26.38;35.04;94955.06;5052292;28;20286;-76
2022/05/13 04:45:47;;;;;;;6.20;4.80;;;;;;;26.84;34.35;94955.06;5052595;28;20361;-76
2022/05/13 04:48:16;;;;;;;6.93;5.53;;;;;;;26.62;34.45;94959.44;5054189;28;20220;-75
2022/05/13 04:50:46;;;;;;;11.13;5.35;;;;;;;27.11;33.84;94968.91;5053748;28;20607;-76
2022/05/13 04:53:14;;;;;;;10.35;5.13;;;;;;;26.96;34.33;94966.81;5053496;28;20550;-75
2022/05/13 04:55:41;;;;;;;5.00;4.53;;;;;;;27.38;32.72;94959.66;5053411;28;20224;-76
2022/05/13 04:58:08;;;;;;;7.45;5.60;;;;;;;27.63;32.66;94961.97;5049082;28;20228;-76
2022/05/13 05:00:35;;;;;;;5.93;5.30;;;;;;;27.84;32.99;94967.09;5044868;28;20319;-76
2022/05/13 05:03:03;;;;;;;10.23;6.20;;;;;;;27.91;32.16;94964.13;5053706;28;20208;-74
2022/05/13 05:05:31;;;;;;;6.55;5.22;;;;;;;28.50;31.59;94960.44;5053162;28;20204;-75
2022/05/13 05:07:58;;;;;;;10.68;6.20;;;;;;;27.92;32.21;94957.34;5048479;28;20192;-75
2022/05/13 05:10:25;;;;;;;6.35;5.75;;;;;;;27.52;32.87;94960.16;5042027;28;20215;-77
2022/05/13 05:12:54;;;;;;;9.85;5.75;;;;;;;28.95;31.54;94968.88;5052248;28;20668;-75
2022/05/13 05:15:21;;;;;;;7.72;5.55;;;;;;;27.41;33.60;94973.50;5050637;28;20220;-76
2022/05/13 05:17:48;;;;;;;6.38;5.47;;;;;;;27.82;32.52;94977.88;5044551;28;20216;-76
2022/05/13 05:20:16;;;;;;;8.57;5.13;;;;;;;28.72;31.84;94969.81;5041286;28;20200;-77
2022/05/13 05:22:46;;;;;;;9.18;6.30;;;;;;;28.16;32.32;94969.94;5033988;28;20730;-77
2022/05/13 05:25:14;;;;;;;7.60;5.65;;;;;;;28.67;30.52;94975.94;5045833;28;20698;-77
2022/05/13 05:27:42;;;;;;;8.02;5.55;;;;;;;28.90;30.80;94972.19;5044183;28;20223;-77
2022/05/13 05:30:11;;;;;;;10.25;5.40;;;;;;;29.12;31.36;94966.84;5050555;28;20204;-77
2022/05/13 05:32:38;;;;;;;6.68;5.47;;;;;;;29.22;30.75;94971.38;5051982;28;20222;-77
2022/05/13 05:35:07;;;;;;;9.52;5.07;;;;;;;29.74;30.58;94973.13;5038865;28;20215;-76
2022/05/13 05:37:36;;;;;;;6.70;5.30;;;;;;;29.55;29.79;94977.66;5039442;28;20201;-77
2022/05/13 05:40:04;;;;;;;7.80;5.05;;;;;;;28.32;30.55;94977.56;5038469;28;20232;-74
2022/05/13 05:42:31;;;;;;;10.48;5.85;;;;;;;29.68;29.98;94975.69;5052111;28;20200;-74
2022/05/13 05:44:58;;;;;;;9.88;5.10;;;;;;;30.49;28.09;94974.44;5062200;28;20242;-76
2022/05/13 05:47:25;;;;;;;7.50;5.20;;;;;;;30.64;27.89;94972.78;5048971;28;20215;-79
2022/05/13 05:49:52;;;;;;;6.80;5.00;;;;;;;30.31;28.65;94973.03;5050981;28;20203;-80
2022/05/13 05:52:19;;;;;;;6.68;5.07;;;;;;;30.28;28.16;94968.31;5051330;28;20608;-77
2022/05/13 05:57:32;;;;;;;5.45;4.63;;;;;;;31.22;27.09;94959.25;5038294;28;20202;-77
2022/05/13 06:00:00;;;;;;;5.50;4.63;;;;;;;31.38;27.21;94959.09;5050581;28;20207;-84
2022/05/13 06:02:28;;;;;;;7.75;4.50;;;;;;;30.51;27.37;94969.19;5032082;28;20305;-78
2022/05/13 06:04:55;;;;;;;6.53;4.50;;;;;;;30.56;27.94;94966.66;5043811;28;20196;-80
2022/05/13 06:07:21;;;;;;;8.25;5.45;;;;;;;31.17;27.62;94956.25;5037014;28;20192;-79
2022/05/13 06:09:51;;;;;;;9.13;4.80;;;;;;;31.29;27.35;94949.84;5037127;28;20211;-81
2022/05/13 06:12:18;;;;;;;6.30;4.88;;;;;;;31.38;28.10;94947.09;5050710;28;20211;-81
2022/05/13 06:14:44;;;;;;;8.13;5.50;;;;;;;31.01;27.87;94957.97;5039570;28;20196;-77
2022/05/13 06:17:12;;;;;;;8.20;5.35;;;;;;;30.12;29.12;94962.81;5051107;28;20251;-80
2022/05/13 06:19:39;;;;;;;8.85;5.20;;;;;;;28.85;31.12;94953.97;5051719;28;20199;-79
2022/05/13 06:22:06;;;;;;;5.80;4.28;;;;;;;30.20;28.99;94944.63;5038215;28;20231;-81
2022/05/13 06:24:33;;;;;;;7.10;4.97;;;;;;;28.78;31.00;94954.16;5038871;28;20279;-77
2022/05/13 06:27:01;;;;;;;9.60;5.10;;;;;;;29.06;31.10;94951.88;5043561;28;20298;-79
2022/05/13 06:29:28;;;;;;;6.25;4.25;;;;;;;29.40;30.49;94957.72;5044226;28;20199;-79
2022/05/13 06:31:58;;;;;;;8.02;4.60;;;;;;;28.78;30.80;94948.56;5046084;28;20204;-78
2022/05/13 06:34:26;;;;;;;6.10;4.88;;;;;;;30.32;30.09;94946.63;5044366;28;20684;-78
2022/05/13 06:36:53;;;;;;;6.60;4.60;;;;;;;29.84;30.49;94949.69;5038930;28;20191;-79
2022/05/13 06:39:20;;;;;;;8.63;4.50;;;;;;;29.82;29.58;94944.53;5037697;28;20232;-78
2022/05/13 06:41:48;;;;;;;6.47;4.72;;;;;;;29.42;30.27;94946.91;5051576;28;20235;-80
2022/05/13 06:44:18;;;;;;;9.25;5.18;;;;;;;30.70;28.75;94937.44;5059714;28;20253;-79
2022/05/13 06:46:47;;;;;;;6.50;5.00;;;;;;;30.14;28.59;94940.81;5051264;28;20239;-77
2022/05/13 06:49:14;;;;;;;7.47;5.13;;;;;;;29.40;29.85;94943.75;5038446;28;20204;-77
2022/05/13 06:51:42;;;;;;;9.85;5.07;;;;;;;30.84;28.07;94936.16;5040745;28;20208;-78
2022/05/13 06:54:10;;;;;;;6.43;4.75;;;;;;;31.50;27.19;94929.44;5044678;28;20633;-78
2022/05/13 06:56:41;;;;;;;8.43;4.68;;;;;;;31.24;27.01;94930.81;5041448;28;20207;-81
2022/05/13 06:59:09;;;;;;;7.50;5.22;;;;;;;29.23;29.23;94939.44;5038074;28;20651;-79
2022/05/13 07:01:38;;;;;;;5.60;4.72;;;;;;;30.13;28.14;94939.25;5039550;28;20227;-78
2022/05/13 07:04:05;;;;;;;7.50;4.75;;;;;;;31.69;27.56;94927.59;5044617;28;20212;-78
2022/05/13 07:06:32;;;;;;;10.35;4.50;;;;;;;30.76;28.26;94927.22;5043491;28;20242;-78
2022/05/13 07:08:59;;;;;;;6.38;4.80;;;;;;;30.30;28.39;94926.72;5045157;28;20262;-76
2022/05/13 07:11:26;;;;;;;7.90;4.55;;;;;;;31.22;27.19;94916.47;5044253;28;20265;-77
2022/05/13 07:13:53;;;;;;;6.60;4.72;;;;;;;30.95;27.51;94909.38;5036960;28;20212;-79
2022/05/13 07:16:20;;;;;;;7.00;5.20;;;;;;;30.16;28.12;94926.38;5037612;28;20215;-78
2022/05/13 07:18:48;;;;;;;7.00;4.90;;;;;;;29.68;29.11;94931.00;5044294;28;20208;-77
2022/05/13 07:21:16;;;;;;;8.13;4.97;;;;;;;30.13;28.43;94927.28;5044072;28;20227;-78
2022/05/13 07:23:43;;;;;;;7.07;4.55;;;;;;;30.83;28.49;94913.00;5037965;28;20208;-80
2022/05/13 07:26:11;;;;;;;8.25;4.93;;;;;;;30.88;28.73;94911.66;5050811;28;20211;-79
2022/05/13 07:28:39;;;;;;;7.00;4.70;;;;;;;31.58;27.56;94911.13;5030667;28;20204;-78
2022/05/13 07:31:07;;;;;;;6.00;4.78;;;;;;;30.36;28.97;94919.31;5044040;28;20595;-77
2022/05/13 07:33:34;;;;;;;6.68;5.07;;;;;;;29.47;29.61;94923.25;5038516;28;20291;-78
2022/05/13 07:36:03;;;;;;;8.23;4.93;;;;;;;29.94;29.12;94915.03;5037150;28;20205;-78
2022/05/13 07:38:31;;;;;;;6.60;4.50;;;;;;;28.79;29.51;94915.91;5050319;28;20613;-79
2022/05/13 07:43:43;;;;;;;8.73;5.18;;;;;;;28.74;31.18;94919.97;5055355;28;20596;-77
2022/05/13 07:46:11;;;;;;;9.38;5.25;;;;;;;29.61;29.56;94911.66;5052093;28;20254;-79
2022/05/13 07:48:40;;;;;;;6.85;5.13;;;;;;;29.91;29.75;94904.78;5050899;28;20227;-77
2022/05/13 07:51:09;;;;;;;7.60;4.85;;;;;;;29.35;30.65;94916.38;5036936;28;20312;-77
2022/05/13 07:53:36;;;;;;;9.07;5.30;;;;;;;29.29;32.16;94902.16;5038378;28;20212;-77
2022/05/13 07:56:04;;;;;;;10.30;4.82;;;;;;;28.84;30.69;94907.78;5043627;28;20204;-79
2022/05/13 07:58:31;;;;;;;9.70;5.88;;;;;;;27.25;33.41;94906.66;5042226;28;20234;-78
2022/05/13 08:01:00;;;;;;;7.32;5.30;;;;;;;26.45;35.03;94904.94;5050126;28;20653;-77
2022/05/13 08:03:30;;;;;;;7.57;5.95;;;;;;;26.28;35.59;94897.66;5054148;28;20261;-79
2022/05/13 08:06:03;;;;;;;9.68;6.03;;;;;;;27.36;33.59;94907.22;5034475;28;20224;-77
2022/05/13 08:08:35;;;;;;;8.85;5.85;;;;;;;27.54;33.80;94902.06;5035258;28;20192;-79
2022/05/13 08:11:06;;;;;;;9.73;5.93;;;;;;;27.58;34.84;94894.47;5053542;28;20227;-76
2022/05/13 08:13:34;;;;;;;9.73;6.38;;;;;;;26.92;35.18;94898.09;5040968;28;20224;-76
2022/05/13 08:16:01;;;;;;;10.95;6.07;;;;;;;27.34;35.41;94897.72;5044600;28;20200;-77
2022/05/13 08:18:29;;;;;;;9.32;5.75;;;;;;;27.65;34.88;94884.38;5047702;28;20208;-77
2022/05/13 08:20:56;;;;;;;11.80;6.43;;;;;;;28.73;32.07;94884.16;5044169;28;20693;-78
2022/05/13 08:23:23;;;;;;;11.35;6.50;;;;;;;29.00;31.86;94888.22;5040840;28;20220;-78
2022/05/13 08:25:52;;;;;;;10.25;6.20;;;;;;;29.36;30.99;94881.66;5044289;28;20204;-78
2022/05/13 08:28:21;;;;;;;12.50;6.00;;;;;;;29.62;31.07;94876.94;5047527;28;20378;-79
2022/05/13 08:30:49;;;;;;;8.27;5.82;;;;;;;29.72;30.85;94869.44;5034123;28;20207;-78
2022/05/13 08:33:16;;;;;;;8.63;6.22;;;;;;;29.37;30.73;94879.63;5047476;28;20249;-78
2022/05/13 08:35:46;;;;;;;11.50;5.80;;;;;;;27.63;33.48;94886.78;5045089;28;20199;-76
2022/05/13 08:38:14;;;;;;;11.68;6.45;;;;;;;27.72;32.98;94875.88;5053723;28;20258;-76
2022/05/13 08:41:16;;;;;;;7.50;5.75;;;;;;;27.20;34.71;94882.09;5053666;28;20207;-78
2022/05/13 08:43:49;;;;;;;11.52;5.90;;;;;;;26.60;34.81;94872.91;5037326;28;20214;-78
2022/05/13 08:46:25;;;;;;;13.75;5.80;;;;;;;26.92;34.38;94871.53;5054844;28;20725;-76
2022/05/13 08:48:58;;;;;;;9.63;5.70;;;;;;;27.83;33.49;94856.91;5053702;28;20650;-79
2022/05/13 08:51:37;;;;;;;13.52;6.00;;;;;;;27.11;34.45;94863.22;5033967;28;20236;-79
2022/05/13 08:54:10;;;;;;;8.73;5.20;;;;;;;27.05;33.70;94864.94;5049696;28;20207;-80
2022/05/13 08:56:38;;;;;;;10.10;5.35;;;;;;;27.89;32.40;94858.72;5053468;28;20216;-77
2022/05/13 08:59:13;;;;;;;8.43;5.20;;;;;;;28.37;32.56;94859.22;5040029;28;20199;-78
2022/05/13 09:01:47;;;;;;;11.55;5.72;;;;;;;27.79;32.62;94845.06;5041357;28;20219;-75
2022/05/13 09:04:21;;;;;;;7.53;5.07;;;;;;;27.59;33.98;94845.91;5047017;28;20196;-77
2022/05/13 09:06:53;;;;;;;9.50;5.05;;;;;;;27.39;33.05;94845.13;5046611;28;20249;-77
2022/05/13 09:09:20;;;;;;;7.95;5.65;;;;;;;26.84;33.52;94849.41;5033085;28;20220;-76
2022/05/13 09:11:51;;;;;;;11.43;6.18;;;;;;;26.27;34.82;94843.31;5046680;28;20211;-80
2022/05/13 09:14:36;;;;;;;9.05;5.70;;;;;;;26.34;36.08;94838.44;5041245;28;20298;-78
2022/05/13 09:17:27;;;;;;;9.80;5.28;;;;;;;26.82;36.55;94851.06;5052870;28;20739;-78
2022/05/13 09:19:59;;;;;;;8.20;5.78;;;;;;;26.03;36.83;94845.28;5053269;28;20307;-73
2022/05/13 09:22:33;;;;;;;7.65;5.82;;;;;;;25.99;36.47;94834.25;5043967;28;20232;-75
2022/05/13 09:25:00;;;;;;;11.48;5.70;;;;;;;26.49;35.96;94839.78;5049968;28;20211;-78
2022/05/13 09:27:27;;;;;;;8.30;5.05;;;;;;;26.86;35.54;94830.31;5042512;28;20211;-78
2022/05/13 09:29:56;;;;;;;6.78;4.60;;;;;;;27.11;32.87;94831.81;5046308;28;20204;-78
2022/05/13 09:32:27;;;;;;;6.28;4.40;;;;;;;27.23;33.02;94814.47;5043784;28;20204;-77
2022/05/13 09:35:05;;;;;;;8.02;4.38;;;;;;;27.66;33.16;94810.78;5033913;28;20196;-77
2022/05/13 09:37:38;;;;;;;4.85;3.90;;;;;;;27.85;32.41;94798.78;5046412;28;20199;-78
2022/05/13 09:40:10;;;;;;;6.32;3.90;;;;;;;27.00;31.92;94806.25;5039922;28;20277;-80
2022/05/13 09:42:39;;;;;;;4.88;3.70;;;;;;;26.34;32.07;94807.09;5052576;28;20235;-78
2022/05/13 09:45:18;;;;;;;8.02;3.75;;;;;;;27.21;32.57;94798.22;5063276;28;20721;-77
2022/05/13 09:47:58;;;;;;;6.80;3.80;;;;;;;27.34;33.21;94787.19;5049176;28;20207;-78
2022/05/13 09:50:28;;;;;;;5.25;3.65;;;;;;;27.32;31.50;94789.66;5044819;28;20247;-78
2022/05/13 09:53:03;;;;;;;7.88;3.80;;;;;;;27.15;31.88;94780.47;5039256;28;20222;-79
2022/05/13 09:55:34;;;;;;;6.55;3.70;;;;;;;27.10;32.21;94782.97;5051206;28;20191;-79
2022/05/13 09:58:04;;;;;;;6.68;3.22;;;;;;;27.00;30.95;94778.44;5040572;28;20195;-77
2022/05/13 10:00:38;;;;;;;4.07;3.15;;;;;;;26.99;31.11;94772.09;5038667;28;20207;-76
2022/05/13 10:03:19;;;;;;;4.60;3.08;;;;;;;27.08;31.17;94763.94;5042601;28;20231;-75
2022/05/13 10:05:52;;;;;;;5.13;3.45;;;;;;;26.71;31.79;94769.84;5045136;28;20609;-80
2022/05/13 10:08:26;;;;;;;3.95;3.55;;;;;;;26.74;32.41;94775.34;5044037;28;20234;-79
2022/05/13 10:13:59;;;;;;;4.10;2.83;;;;;;;27.11;30.74;94759.50;5052437;28;20330;-80
2022/05/13 10:16:35;;;;;;;3.88;3.08;;;;;;;27.66;32.39;94757.88;5051728;28;20543;-79
2022/05/13 10:19:07;;;;;;;3.90;2.92;;;;;;;27.12;31.26;94755.50;5038651;28;20202;-76
2022/05/13 10:21:41;;;;;;;4.85;3.20;;;;;;;27.65;31.39;94751.53;5051564;28;20230;-77
2022/05/13 10:24:27;;;;;;;4.25;3.40;;;;;;;27.88;30.48;94753.38;5043844;28;20204;-78
2022/05/13 10:26:57;;;;;;;9.25;3.28;;;;;;;27.89;30.37;94738.97;5044084;28;20235;-82
2022/05/13 10:29:28;;;;;;;5.40;3.53;;;;;;;27.69;31.46;94740.31;5043616;28;20191;-76
2022/05/13 10:31:58;;;;;;;4.32;3.05;;;;;;;27.74;31.89;94737.00;5038549;28;20207;-74
2022/05/13 10:34:31;;;;;;;3.03;2.70;;;;;;;28.01;31.36;94737.50;5038494;28;20574;-76
2022/05/13 10:37:04;;;;;;;5.43;3.30;;;;;;;27.79;30.84;94739.25;5040553;28;20309;-76
2022/05/13 10:39:41;;;;;;;6.85;3.55;;;;;;;28.45;30.60;94735.16;5051635;28;20312;-77
2022/05/13 10:42:16;;;;;;;4.38;3.05;;;;;;;28.36;30.87;94733.00;5051173;28;20351;-78
2022/05/13 10:44:51;;;;;;;4.63;3.20;;;;;;;28.44;31.37;94733.59;5067508;28;20198;-78
2022/05/13 10:47:29;;;;;;;3.40;2.88;;;;;;;27.81;30.70;94726.47;5071145;28;20186;-74
2022/05/13 10:49:56;;;;;;;6.63;3.30;;;;;;;27.40;31.89;94729.03;5071729;28;20222;-78
2022/05/13 10:52:42;;;;;;;5.85;3.58;;;;;;;27.58;31.62;94724.66;5056309;28;20211;-76
2022/05/13 10:55:16;;;;;;;4.82;3.55;;;;;;;27.43;31.03;94717.06;5051347;28;20191;-78
2022/05/13 10:57:56;;;;;;;5.55;3.10;;;;;;;27.67;32.63;94714.91;5038445;28;20200;-78
2022/05/13 11:00:31;;;;;;;7.85;3.47;;;;;;;27.44;32.16;94713.06;5051344;28;20195;-80
2022/05/13 11:03:38;;;;;;;5.03;3.72;;;;;;;27.47;31.48;94712.94;5039358;28;20215;-74
2022/05/13 11:06:28;;;;;;;9.10;3.58;;;;;;;27.94;31.93;94698.69;5036270;28;20236;-77
2022/05/13 11:09:03;;;;;;;4.70;3.67;;;;;;;27.94;31.70;94704.25;5051038;28;20268;-76
2022/05/13 11:11:41;;;;;;;4.70;3.75;;;;;;;27.83;32.03;94695.41;5039629;28;20690;-78
2022/05/13 11:14:24;;;;;;;4.63;3.55;;;;;;;27.39;32.31;94700.44;5044262;28;20287;-73
2022/05/13 11:17:01;;;;;;;3.65;3.33;;;;;;;27.43;31.78;94690.00;5043836;28;20200;-71
2022/05/13 11:19:34;;;;;;;4.38;3.28;;;;;;;27.16;33.48;94683.91;5041191;28;20638;-77
2022/05/13 11:22:15;;;;;;;6.07;3.20;;;;;;;26.78;32.39;94695.47;5037336;28;20589;-76
2022/05/13 11:27:58;;;;;;;8.40;3.05;;;;;;;27.14;31.75;94680.78;5050799;28;20297;-69
2022/05/13 11:30:38;;;;;;;6.40;3.22;;;;;;;26.89;31.86;94672.97;5037967;28;20196;-77
2022/05/13 11:33:18;;;;;;;6.53;3.72;;;;;;;27.44;32.21;94672.09;5050952;28;20203;-73
2022/05/13 11:36:00;;;;;;;6.70;3.50;;;;;;;27.75;32.67;94671.72;5050668;28;20192;-74
2022/05/13 11:38:44;;;;;;;7.53;3.45;;;;;;;27.23;31.90;94680.94;5037535;28;20689;-78
2022/05/13 11:41:14;;;;;;;6.32;3.42;;;;;;;27.38;31.87;94664.69;5050432;28;20601;-79
2022/05/13 11:43:50;;;;;;;5.60;3.58;;;;;;;27.33;31.74;94663.22;5055690;28;20218;-87
2022/05/13 11:46:51;;;;;;;6.65;3.33;;;;;;;27.52;31.99;94656.78;5051456;28;20230;-78
2022/05/13 11:49:26;;;;;;;4.15;3.40;;;;;;;27.34;31.68;94652.84;5036792;28;20234;-78
2022/05/13 11:51:56;;;;;;;6.07;3.38;;;;;;;27.31;32.21;94660.09;5039460;28;20204;-78
2022/05/13 11:54:26;;;;;;;4.05;3.13;;;;;;;26.81;32.41;94655.66;5049053;28;20690;-77
2022/05/13 11:57:23;;;;;;;6.55;3.35;;;;;;;27.12;32.20;94647.03;5050679;28;20210;-76
2022/05/13 11:59:52;;;;;;;9.65;3.42;;;;;;;27.65;32.66;94640.16;5050323;28;20196;-76
2022/05/13 12:02:35;;;;;;;4.97;3.17;;;;;;;27.86;30.11;94631.28;5050192;28;20200;-78
2022/05/13 12:05:30;;;;;;;3.70;3.03;;;;;;;27.55;30.76;94630.06;5036723;28;20200;-83
2022/05/13 12:08:07;;;;;;;3.72;3.10;;;;;;;26.95;31.81;94631.53;5039593;28;20594;-77